Hub


Voltar

 INFORMAÇÕES METEOROLÓGICAS

METAR FOR SOCA


ADDS - METARS form results

(0347 UTC 21 May 2019)
Data provider http://aviationweather.gov/metar/data/
 
METAR text: SOCA 210330Z AUTO 13004KT 090V180 9999 FEW009/// BKN066/// BKN082/// ///TCU 25/24 Q1012 TEMPO 4000 SHRA
Conditions at: SOCA (CAYENNE/ROCHAMBE, GY) observed 0330 UTC 21 May 2019
Temperature: 25.0°C (77°F)
Dewpoint: 24.0°C (75°F) [RH = 94%]
Pressure (altimeter): 29.88 inches Hg (1012.0 mb)
Winds: from the SE (130 degrees) at 5 MPH (4 knots; 2.1 m/s)
Visibility: 6 or more miles (10+ km)
Ceiling: 6600 feet AGL
Clouds: few clouds at 900 feet AGL
broken clouds at 6600 feet AGL
broken clouds at 8200 feet AGL
Weather: no significant weather observed at this time

METAR text: SOCA 210300Z AUTO 09008KT 060V120 9000 -RA SCT010 BKN020 BKN032 26/24 Q1013 TEMPO 4000 SHRA SCT012TCU
Conditions at: SOCA (CAYENNE/ROCHAMBE, GY) observed 0300 UTC 21 May 2019
Temperature: 26.0°C (79°F)
Dewpoint: 24.0°C (75°F) [RH = 89%]
Pressure (altimeter): 29.91 inches Hg (1013.0 mb)
Winds: from the E (90 degrees) at 9 MPH (8 knots; 4.1 m/s)
Visibility: 6 miles ( 9 km)
Ceiling: 2000 feet AGL
Clouds: scattered clouds at 1000 feet AGL
broken clouds at 2000 feet AGL
broken clouds at 3200 feet AGL
Weather: -RA  (light rain)

Forecast for: SOCA (CAYENNE/ROCHAMBE, GY)
Text: TAF SOCA 202200Z 2100/2124 VRB03KT 9999 FEW020
Forecast period: 0000 UTC 21 May 2019 to 0000 UTC 22 May 2019
Forecast type: FROM: standard forecast or significant change
Winds: variable direction winds at 3 MPH (3 knots; 1.5 m/s)
Visibility: 6 or more miles 10+ km)
Ceiling: at least 12,000 feet AGL
Clouds: few clouds at 2000 feet AGL
Weather: no significant weather forecast for this period
Text: PROB30
Forecast period: 0000 to 0800 UTC 21 May 2019
Forecast type: TEMPORARY: The following changes expected for less than half the time period
Visibility: 2.49 miles (4.01 km)
Ceiling: at least 12,000 feet AGL
Clouds: scattered clouds at 1200 feet AGL
Weather: SHRA  (rain showers)
Text: TEMPO 2100/2108 4000 SHRA SCT012TCU
Forecast period: 0600 UTC 21 May 2019 to 0000 UTC 22 May 2019
Forecast type: TEMPORARY: The following changes expected for less than half the time period
Winds: from the E (80 degrees) at 16 MPH (14 knots; 7.2 m/s)
Visibility: 0.62 miles (1.00 km)
Ceiling: 1200 feet AGL
Clouds: broken clouds at 1200 feet AGL
Weather: +SHRA  (heavy rain showers)


 MAPA DO AEROPORTO


 INFORMAÇÕES DA PISTA

Pista 08 Tamanho da pista 10486 ft Largura da pista 148 ft
Elevação da pista 18 ft Ranhura da pista 0 ft Proa da pista 65
Pista 26 Tamanho da pista 10486 ft Largura da pista 148 ft
Elevação da pista 25 ft Ranhura da pista 0 ft Proa da pista 245

 FREQUÊNCIAS DO AEROPORTO

Tipo APP Nome APP Frequência 119.9 MHZ
Tipo ATIS Nome ATIS Frequência 132.2 MHZ
Tipo TWR Nome TWR Frequência 118.1 MHZ

 AUXÍLIOS DE NAVEGAÇÃO PRÓXIMOS AO AEROPORTO

Tipo VOR-DME Nome Cayenne Frequência 115950 KHZ
Tipo NDB Nome Cayenne Frequência 327 KHZ